Time;durP1;ratioP1;P1;durP2;ratioP2;P2;SDS_P1;SDS_P2;PMS_P1;PMS_P2;Temp;Humidity;BMP_temperature;BMP_pressure;BME280_temperature;BME280_humidity;BME280_pressure;Samples;Min_cycle;Max_cycle;Signal;HPM_P1;HPM_P2
2021/12/13 06:35:21;;;;;;;32.55;18.30;;;;;;;;;;5169118;23;20053;-68
2021/12/13 06:37:57;;;;;;;28.65;16.30;;;;;;;;;;4913322;29;20403;-64
2021/12/13 06:40:35;;;;;;;29.27;16.65;;;;;;;;;;4914587;29;20025;-63
2021/12/13 06:43:02;;;;;;;26.95;15.45;;;;;;;;;;4914758;29;20032;-64
2021/12/13 06:45:33;;;;;;;32.25;17.30;;;;;;;;;;4897646;29;20035;-66
2021/12/13 06:48:01;;;;;;;30.48;17.48;;;;;;;;;;4916303;29;20035;-62
2021/12/13 06:50:29;;;;;;;27.52;17.08;;;;;;;;;;4922057;29;20438;-73
2021/12/13 06:53:10;;;;;;;31.85;17.55;;;;;;;;;;4936155;29;20107;-72
2021/12/13 06:55:37;;;;;;;30.85;17.98;;;;;;;;;;4936367;29;20119;-71
2021/12/13 06:58:11;;;;;;;30.30;18.42;;;;;;;;;;4936289;29;20032;-71
2021/12/13 07:00:38;;;;;;;32.85;19.02;;;;;;;;;;4935046;29;20035;-70
2021/12/13 07:03:06;;;;;;;31.38;19.20;;;;;;;;;;4936081;29;20547;-71
2021/12/13 07:05:35;;;;;;;33.20;18.98;;;;;;;;;;4936161;29;20097;-69
2021/12/13 07:08:06;;;;;;;34.28;19.80;;;;;;;;;;4935954;29;20055;-65
2021/12/13 07:10:40;;;;;;;33.97;20.80;;;;;;;;;;4928039;29;20054;-70
2021/12/13 07:13:08;;;;;;;31.85;18.98;;;;;;;;;;4917327;29;20036;-71
2021/12/13 07:15:34;;;;;;;31.25;19.40;;;;;;;;;;4917424;29;20035;-64
2021/12/13 07:18:03;;;;;;;28.10;17.08;;;;;;;;;;4915464;29;20054;-66
2021/12/13 07:20:39;;;;;;;27.02;16.88;;;;;;;;;;4909704;29;20110;-65
2021/12/13 07:23:05;;;;;;;44.35;19.15;;;;;;;;;;4916759;29;20078;-68
2021/12/13 07:25:35;;;;;;;28.40;16.65;;;;;;;;;;4916254;29;20024;-68
2021/12/13 07:28:03;;;;;;;25.40;15.75;;;;;;;;;;4916103;29;20063;-63
2021/12/13 07:30:30;;;;;;;28.13;16.58;;;;;;;;;;4913530;29;20036;-65
2021/12/13 07:33:08;;;;;;;26.98;16.00;;;;;;;;;;4916313;29;20136;-66
2021/12/13 07:35:34;;;;;;;24.50;15.45;;;;;;;;;;4921988;29;20052;-61
2021/12/13 07:38:02;;;;;;;26.05;16.25;;;;;;;;;;4924609;29;20020;-64
2021/12/13 07:40:37;;;;;;;28.05;16.73;;;;;;;;;;4921786;29;20380;-70
2021/12/13 07:43:05;;;;;;;28.45;15.68;;;;;;;;;;4924549;29;20028;-66
2021/12/13 07:45:45;;;;;;;26.50;16.35;;;;;;;;;;4908125;29;20024;-65
2021/12/13 07:48:13;;;;;;;26.88;16.80;;;;;;;;;;4922524;29;20419;-65
2021/12/13 07:50:41;;;;;;;28.33;16.90;;;;;;;;;;4927694;29;20046;-66
2021/12/13 07:53:10;;;;;;;25.60;15.77;;;;;;;;;;4927564;29;20019;-65
2021/12/13 07:55:41;;;;;;;26.95;16.88;;;;;;;;;;4902839;29;20035;-67
2021/12/13 07:58:07;;;;;;;25.17;16.27;;;;;;;;;;4928583;29;20389;-67
2021/12/13 08:00:39;;;;;;;26.48;15.70;;;;;;;;;;4928703;29;20091;-61
2021/12/13 08:03:15;;;;;;;25.95;15.10;;;;;;;;;;4924981;29;20028;-66
2021/12/13 08:05:45;;;;;;;27.42;16.35;;;;;;;;;;4927512;29;20044;-58
2021/12/13 08:08:36;;;;;;;29.85;17.02;;;;;;;;;;4925611;29;20114;-66
2021/12/13 08:11:04;;;;;;;;;;;;;;;;;;4922963;29;20475;-62
2021/12/13 08:13:31;;;;;;;31.98;16.83;;;;;;;;;;4916266;29;19911;-71
2021/12/13 08:16:02;;;;;;;30.25;18.80;;;;;;;;;;4915466;29;20024;-70
2021/12/13 08:18:31;;;;;;;29.80;17.88;;;;;;;;;;4915765;29;20519;-63
2021/12/13 08:21:02;;;;;;;29.63;17.77;;;;;;;;;;4913718;29;20031;-68
2021/12/13 08:23:35;;;;;;;31.23;18.05;;;;;;;;;;4925390;29;20032;-67
2021/12/13 08:26:02;;;;;;;26.13;16.40;;;;;;;;;;4924427;29;20099;-64
2021/12/13 08:28:48;;;;;;;32.63;17.88;;;;;;;;;;4922173;29;20099;-64
2021/12/13 08:31:25;;;;;;;32.17;18.83;;;;;;;;;;4924707;29;20085;-65
2021/12/13 08:33:53;;;;;;;34.95;19.90;;;;;;;;;;4924410;28;20027;-60
2021/12/13 08:36:22;;;;;;;35.60;20.20;;;;;;;;;;4922908;29;20043;-66
2021/12/13 08:39:00;;;;;;;34.00;19.15;;;;;;;;;;4923559;29;20440;-68
2021/12/13 08:41:26;;;;;;;33.58;20.40;;;;;;;;;;4922720;29;20468;-68
2021/12/13 08:43:54;;;;;;;33.97;21.10;;;;;;;;;;4934193;29;20058;-68
2021/12/13 08:46:36;;;;;;;35.55;22.05;;;;;;;;;;4933899;29;20480;-66
2021/12/13 08:49:12;;;;;;;38.53;22.58;;;;;;;;;;4934184;29;20066;-70
2021/12/13 08:51:49;;;;;;;38.08;22.42;;;;;;;;;;4934365;29;20059;-66
2021/12/13 08:54:16;;;;;;;37.75;22.55;;;;;;;;;;4934011;29;20035;-70
2021/12/13 08:56:46;;;;;;;35.05;21.58;;;;;;;;;;4933833;29;20059;-69
2021/12/13 08:59:25;;;;;;;37.33;20.67;;;;;;;;;;4934280;29;20034;-73
2021/12/13 09:01:53;;;;;;;35.28;21.52;;;;;;;;;;4934173;29;20028;-71
2021/12/13 09:04:28;;;;;;;34.13;20.65;;;;;;;;;;4933650;29;20594;-62
2021/12/13 09:06:56;;;;;;;35.97;21.48;;;;;;;;;;4933947;29;20035;-75
2021/12/13 09:09:22;;;;;;;36.47;22.55;;;;;;;;;;4933662;29;20040;-70
2021/12/13 09:11:54;;;;;;;34.63;21.42;;;;;;;;;;4933912;29;20028;-68
2021/12/13 09:14:23;;;;;;;36.70;20.48;;;;;;;;;;4934087;29;20031;-64
2021/12/13 09:17:06;;;;;;;36.83;20.58;;;;;;;;;;4933775;29;20488;-64
2021/12/13 09:19:34;;;;;;;35.72;20.33;;;;;;;;;;4916271;29;20134;-69
2021/12/13 09:22:13;;;;;;;39.17;21.05;;;;;;;;;;4933830;29;20373;-64
2021/12/13 09:24:39;;;;;;;35.17;19.88;;;;;;;;;;4933235;29;20090;-69
2021/12/13 09:27:11;;;;;;;41.53;22.10;;;;;;;;;;4933793;29;20039;-70
2021/12/13 09:29:49;;;;;;;41.00;23.00;;;;;;;;;;4932749;29;20043;-71
2021/12/13 09:32:15;;;;;;;46.67;26.33;;;;;;;;;;4933281;29;20107;-66
2021/12/13 09:34:41;;;;;;;41.28;24.27;;;;;;;;;;4933506;29;20078;-71
2021/12/13 09:37:08;;;;;;;36.63;21.40;;;;;;;;;;4932982;29;20032;-70
2021/12/13 09:39:34;;;;;;;37.28;20.70;;;;;;;;;;4933109;29;20031;-68
2021/12/13 09:42:12;;;;;;;32.58;19.80;;;;;;;;;;4933026;29;20029;-68
2021/12/13 09:44:48;;;;;;;38.80;21.48;;;;;;;;;;4933274;29;20031;-69
2021/12/13 09:47:16;;;;;;;34.45;21.00;;;;;;;;;;4933562;29;20032;-68
2021/12/13 09:49:42;;;;;;;36.45;21.40;;;;;;;;;;4933445;29;20051;-63
2021/12/13 09:52:42;;;;;;;36.50;21.45;;;;;;;;;;4933283;29;20067;-62
2021/12/13 09:55:17;;;;;;;33.22;20.70;;;;;;;;;;4856493;29;20045;-65
2021/12/13 09:57:49;;;;;;;33.63;20.40;;;;;;;;;;4856489;29;20117;-69
2021/12/13 10:00:19;;;;;;;35.47;21.33;;;;;;;;;;4856333;29;20041;-63
2021/12/13 10:02:48;;;;;;;32.53;19.15;;;;;;;;;;4856412;29;20042;-64
2021/12/13 10:05:16;;;;;;;34.42;19.85;;;;;;;;;;4841100;29;20049;-64
2021/12/13 10:07:43;;;;;;;36.83;20.83;;;;;;;;;;4856184;29;20030;-63
2021/12/13 10:10:12;;;;;;;33.05;20.08;;;;;;;;;;4856423;29;20123;-65
2021/12/13 10:12:44;;;;;;;36.13;21.40;;;;;;;;;;4856131;29;20120;-60
2021/12/13 10:15:15;;;;;;;34.80;20.38;;;;;;;;;;4855957;29;20045;-64
2021/12/13 10:17:43;;;;;;;34.08;19.85;;;;;;;;;;4856214;29;20038;-63
2021/12/13 10:20:28;;;;;;;34.42;19.40;;;;;;;;;;4847365;29;20718;-61
2021/12/13 10:22:54;;;;;;;33.50;19.52;;;;;;;;;;4840724;29;20557;-60
2021/12/13 10:25:20;;;;;;;35.15;19.60;;;;;;;;;;4848170;29;20037;-61
2021/12/13 10:27:48;;;;;;;31.60;19.35;;;;;;;;;;4849710;29;20092;-63
2021/12/13 10:30:16;;;;;;;30.00;19.13;;;;;;;;;;4866046;29;20051;-62
2021/12/13 10:32:43;;;;;;;32.75;18.67;;;;;;;;;;4930601;29;20024;-62
2021/12/13 10:35:13;;;;;;;33.25;20.33;;;;;;;;;;4926328;29;20492;-63
2021/12/13 10:37:42;;;;;;;32.40;19.83;;;;;;;;;;4917383;29;20024;-60
2021/12/13 10:40:12;;;;;;;35.47;21.73;;;;;;;;;;4917945;29;20421;-59
2021/12/13 10:42:41;;;;;;;35.28;21.42;;;;;;;;;;4917140;29;20032;-63
2021/12/13 10:45:11;;;;;;;32.97;20.35;;;;;;;;;;4924626;29;20020;-64
2021/12/13 10:47:39;;;;;;;37.75;21.27;;;;;;;;;;4922669;29;20392;-61
2021/12/13 10:50:07;;;;;;;31.15;19.13;;;;;;;;;;4927702;29;20040;-61
2021/12/13 10:52:35;;;;;;;33.50;20.08;;;;;;;;;;4924081;29;20035;-61
2021/12/13 10:55:09;;;;;;;32.83;18.63;;;;;;;;;;4926042;29;20031;-60
2021/12/13 10:57:36;;;;;;;31.42;19.02;;;;;;;;;;4925967;29;20394;-61
2021/12/13 11:00:11;;;;;;;36.65;19.95;;;;;;;;;;4926612;29;20099;-62
2021/12/13 11:02:38;;;;;;;33.75;19.33;;;;;;;;;;4926759;29;20032;-62
2021/12/13 11:05:07;;;;;;;35.17;19.92;;;;;;;;;;4916392;29;20059;-65
2021/12/13 11:07:33;;;;;;;37.35;20.90;;;;;;;;;;4924177;29;20450;-66
2021/12/13 11:10:00;;;;;;;36.08;21.33;;;;;;;;;;4924723;29;20039;-65
2021/12/13 11:12:30;;;;;;;36.10;20.48;;;;;;;;;;4924663;29;20032;-61
2021/12/13 11:14:57;;;;;;;37.40;21.20;;;;;;;;;;4908804;29;20086;-64
2021/12/13 11:17:25;;;;;;;33.90;20.60;;;;;;;;;;4922364;29;20024;-65
2021/12/13 11:19:53;;;;;;;38.05;22.20;;;;;;;;;;4925896;29;20062;-63
2021/12/13 11:22:23;;;;;;;39.72;22.10;;;;;;;;;;4915839;29;20040;-64
2021/12/13 11:24:51;;;;;;;38.83;21.25;;;;;;;;;;4916668;29;20044;-62
2021/12/13 11:27:20;;;;;;;40.95;22.38;;;;;;;;;;4922787;29;20060;-67
2021/12/13 11:29:48;;;;;;;36.80;20.60;;;;;;;;;;4925401;29;20413;-63
2021/12/13 11:32:23;;;;;;;35.90;20.02;;;;;;;;;;4924512;29;20032;-70
2021/12/13 11:34:49;;;;;;;35.47;21.10;;;;;;;;;;4917506;29;20135;-68
2021/12/13 11:37:34;;;;;;;38.25;20.83;;;;;;;;;;4924677;29;20163;-69
2021/12/13 11:40:26;;;;;;;33.55;19.10;;;;;;;;;;4923297;29;20484;-69
2021/12/13 11:42:52;;;;;;;25.25;14.50;;;;;;;;;;4896767;29;20119;-71
2021/12/13 11:45:24;;;;;;;36.17;21.60;;;;;;;;;;4902398;29;20550;-69
2021/12/13 11:47:50;;;;;;;;;;;;;;;;;;4917913;29;20028;-67
2021/12/13 11:50:22;;;;;;;30.88;17.70;;;;;;;;;;4917386;29;19977;-64
2021/12/13 11:53:07;;;;;;;32.97;18.20;;;;;;;;;;4916273;29;20520;-67
2021/12/13 11:55:41;;;;;;;34.13;18.25;;;;;;;;;;4923582;29;20035;-67
2021/12/13 11:58:16;;;;;;;34.22;18.77;;;;;;;;;;4930323;29;20131;-69
2021/12/13 12:01:01;;;;;;;34.40;19.25;;;;;;;;;;4925399;29;20088;-62
2021/12/13 12:03:46;;;;;;;36.20;19.60;;;;;;;;;;4925675;29;20032;-70
2021/12/13 12:06:31;;;;;;;37.20;20.00;;;;;;;;;;4912904;29;20423;-66
2021/12/13 12:09:13;;;;;;;35.50;20.73;;;;;;;;;;4929121;29;20127;-68
2021/12/13 12:11:56;;;;;;;33.42;16.92;;;;;;;;;;4933343;29;20024;-72
2021/12/13 12:14:25;;;;;;;35.17;20.95;;;;;;;;;;4924830;29;20763;-70
2021/12/13 12:16:53;;;;;;;41.53;21.77;;;;;;;;;;4924996;29;20088;-70
2021/12/13 12:19:21;;;;;;;38.45;21.42;;;;;;;;;;4923244;29;20016;-69
2021/12/13 12:21:47;;;;;;;35.78;21.20;;;;;;;;;;4922182;29;20028;-70
2021/12/13 12:24:20;;;;;;;38.33;22.48;;;;;;;;;;4921894;29;20047;-69
2021/12/13 12:26:47;;;;;;;;;;;;;;;;;;4923304;29;20035;-68
2021/12/13 12:29:17;;;;;;;40.35;22.85;;;;;;;;;;4922162;29;19969;-71
2021/12/13 12:31:44;;;;;;;37.28;22.23;;;;;;;;;;4923993;29;20031;-67
2021/12/13 12:34:11;;;;;;;41.08;23.00;;;;;;;;;;4923453;29;20028;-67
2021/12/13 12:36:40;;;;;;;43.60;24.77;;;;;;;;;;4931323;29;20052;-65
2021/12/13 12:39:38;;;;;;;46.28;24.38;;;;;;;;;;4927020;29;20054;-62
2021/12/13 12:42:17;;;;;;;41.33;24.13;;;;;;;;;;4922839;29;20028;-64
2021/12/13 12:44:52;;;;;;;40.55;24.38;;;;;;;;;;4922329;29;20111;-66
2021/12/13 12:47:18;;;;;;;44.88;25.20;;;;;;;;;;4923622;29;20024;-68
2021/12/13 12:49:44;;;;;;;44.35;24.40;;;;;;;;;;4922336;29;20139;-67
2021/12/13 12:52:10;;;;;;;44.10;24.70;;;;;;;;;;4919699;29;20028;-61
2021/12/13 12:54:37;;;;;;;43.22;24.60;;;;;;;;;;4920007;29;20020;-65
2021/12/13 12:57:04;;;;;;;49.20;27.17;;;;;;;;;;4922474;29;20023;-66
2021/12/13 12:59:33;;;;;;;46.80;27.10;;;;;;;;;;4920939;29;20028;-70
2021/12/13 13:02:08;;;;;;;45.58;25.45;;;;;;;;;;4924649;29;20027;-62
2021/12/13 13:04:34;;;;;;;42.38;25.15;;;;;;;;;;4923805;29;20067;-62
2021/12/13 13:07:08;;;;;;;44.33;24.35;;;;;;;;;;4920079;29;20514;-64
2021/12/13 13:09:49;;;;;;;45.97;25.40;;;;;;;;;;4921382;29;20075;-69
2021/12/13 13:12:28;;;;;;;42.90;23.70;;;;;;;;;;4930594;29;20024;-68
2021/12/13 13:15:10;;;;;;;41.55;24.45;;;;;;;;;;4933855;29;20035;-62
2021/12/13 13:17:38;;;;;;;31.63;19.15;;;;;;;;;;4924139;29;20035;-65
2021/12/13 13:20:11;;;;;;;42.13;25.42;;;;;;;;;;4925186;29;20479;-69
2021/12/13 13:22:37;;;;;;;;;;;;;;;;;;4927154;29;20038;-65
2021/12/13 13:25:09;;;;;;;47.92;26.08;;;;;;;;;;4934105;29;19911;-67
2021/12/13 13:27:37;;;;;;;49.92;26.70;;;;;;;;;;4933728;29;20031;-72
2021/12/13 13:30:05;;;;;;;44.15;24.67;;;;;;;;;;4933686;29;20035;-68
2021/12/13 13:32:36;;;;;;;50.78;26.15;;;;;;;;;;4922592;29;20051;-65
2021/12/13 13:35:02;;;;;;;50.03;26.98;;;;;;;;;;4917367;29;20052;-63
2021/12/13 13:37:30;;;;;;;51.90;26.73;;;;;;;;;;4914459;29;20032;-70
2021/12/13 13:40:01;;;;;;;50.55;27.52;;;;;;;;;;4921193;29;20032;-65
2021/12/13 13:42:33;;;;;;;47.70;27.45;;;;;;;;;;4916041;29;20123;-79
2021/12/13 13:44:59;;;;;;;49.83;27.07;;;;;;;;;;4918212;29;20082;-80
2021/12/13 13:47:29;;;;;;;43.83;25.85;;;;;;;;;;4928226;29;20348;-68
2021/12/13 13:49:56;;;;;;;53.10;28.60;;;;;;;;;;4917674;29;20036;-63
2021/12/13 13:52:25;;;;;;;51.40;28.75;;;;;;;;;;4920789;29;20032;-67
2021/12/13 13:54:53;;;;;;;49.53;27.77;;;;;;;;;;4920198;29;20115;-69
2021/12/13 13:57:24;;;;;;;51.25;28.75;;;;;;;;;;4926264;29;20080;-70
2021/12/13 13:59:50;;;;;;;47.92;27.30;;;;;;;;;;4926350;29;20111;-68
2021/12/13 14:02:19;;;;;;;48.35;27.33;;;;;;;;;;4927528;29;20104;-66
2021/12/13 14:04:47;;;;;;;51.55;28.58;;;;;;;;;;4923674;29;20098;-64
2021/12/13 14:07:26;;;;;;;48.78;27.77;;;;;;;;;;4925632;29;20479;-71
2021/12/13 14:09:53;;;;;;;49.78;28.35;;;;;;;;;;4925281;29;20028;-68
2021/12/13 14:12:28;;;;;;;50.17;28.55;;;;;;;;;;4925098;29;20663;-68
2021/12/13 14:15:07;;;;;;;50.42;27.67;;;;;;;;;;4925481;29;20028;-66
2021/12/13 14:17:47;;;;;;;51.35;28.38;;;;;;;;;;4925848;29;20102;-67
2021/12/13 14:20:19;;;;;;;47.83;26.88;;;;;;;;;;4925465;29;20491;-69
2021/12/13 14:22:46;;;;;;;47.35;27.08;;;;;;;;;;4925532;29;20034;-65
2021/12/13 14:25:12;;;;;;;46.80;26.38;;;;;;;;;;4924975;29;20024;-70
2021/12/13 14:27:38;;;;;;;45.75;26.33;;;;;;;;;;4927554;29;20028;-69
2021/12/13 14:30:17;;;;;;;52.28;28.60;;;;;;;;;;4928846;29;20058;-68
2021/12/13 14:32:44;;;;;;;48.17;27.83;;;;;;;;;;4923748;29;20384;-69
2021/12/13 14:35:22;;;;;;;48.70;27.08;;;;;;;;;;4928376;29;20063;-72
2021/12/13 14:37:48;;;;;;;43.83;26.42;;;;;;;;;;4924212;29;20034;-65
2021/12/13 14:40:16;;;;;;;46.63;26.77;;;;;;;;;;4936678;29;20032;-67
2021/12/13 14:42:42;;;;;;;46.53;26.73;;;;;;;;;;4919755;29;20119;-67
2021/12/13 14:45:13;;;;;;;44.95;25.48;;;;;;;;;;4927802;29;20044;-70
2021/12/13 14:47:48;;;;;;;49.10;27.83;;;;;;;;;;4909607;29;20455;-67
2021/12/13 14:50:17;;;;;;;50.22;29.20;;;;;;;;;;4926770;29;20451;-66
2021/12/13 14:52:49;;;;;;;53.65;28.25;;;;;;;;;;4926754;29;20031;-68
2021/12/13 14:55:18;;;;;;;51.88;28.00;;;;;;;;;;4930680;29;20032;-64
2021/12/13 14:57:51;;;;;;;54.53;30.35;;;;;;;;;;4930264;29;20031;-66
2021/12/13 15:00:22;;;;;;;53.40;30.02;;;;;;;;;;4918764;29;20098;-65
2021/12/13 15:02:52;;;;;;;48.72;28.77;;;;;;;;;;4936238;29;20074;-65
2021/12/13 15:05:21;;;;;;;49.95;29.00;;;;;;;;;;4935996;29;20471;-67
2021/12/13 15:07:49;;;;;;;50.83;29.65;;;;;;;;;;4935351;29;20136;-62
2021/12/13 15:10:18;;;;;;;61.53;32.13;;;;;;;;;;4933241;29;20091;-67
2021/12/13 15:12:45;;;;;;;60.92;33.53;;;;;;;;;;4932751;29;20091;-67
2021/12/13 15:15:20;;;;;;;60.78;34.00;;;;;;;;;;4930668;29;20114;-69
2021/12/13 15:17:50;;;;;;;63.10;33.90;;;;;;;;;;4928723;29;20763;-64
2021/12/13 15:20:21;;;;;;;56.33;32.67;;;;;;;;;;4926785;29;20032;-63
2021/12/13 15:22:49;;;;;;;57.40;32.05;;;;;;;;;;4929263;29;20031;-68
2021/12/13 15:25:21;;;;;;;61.22;33.40;;;;;;;;;;4933469;29;20055;-69
2021/12/13 15:27:49;;;;;;;61.03;35.15;;;;;;;;;;4925679;29;20157;-67
2021/12/13 15:30:18;;;;;;;57.00;32.75;;;;;;;;;;4921884;29;20087;-67
2021/12/13 15:32:57;;;;;;;57.65;34.30;;;;;;;;;;4930266;29;20032;-63
2021/12/13 15:35:25;;;;;;;62.97;35.53;;;;;;;;;;4931667;29;20563;-68
2021/12/13 15:37:53;;;;;;;67.10;37.30;;;;;;;;;;4929999;29;20036;-61
2021/12/13 15:40:31;;;;;;;57.03;33.20;;;;;;;;;;4921308;29;20028;-64
2021/12/13 15:43:20;;;;;;;58.30;32.42;;;;;;;;;;4915851;29;20460;-68
2021/12/13 15:45:54;;;;;;;58.70;33.72;;;;;;;;;;4916532;29;20055;-71
2021/12/13 15:51:14;;;;;;;62.75;35.15;;;;;;;;;;4908330;29;20040;-63
2021/12/13 15:53:42;;;;;;;63.42;35.22;;;;;;;;;;4897014;29;20115;-68
2021/12/13 15:56:10;;;;;;;59.90;34.28;;;;;;;;;;4897438;29;20021;-66
2021/12/13 15:58:41;;;;;;;59.08;34.08;;;;;;;;;;4909583;29;20032;-66
2021/12/13 16:01:28;;;;;;;48.43;26.50;;;;;;;;;;4918039;29;20072;-68
2021/12/13 16:04:06;;;;;;;53.03;29.67;;;;;;;;;;4916139;29;20036;-62
2021/12/13 16:06:35;;;;;;;48.20;26.85;;;;;;;;;;4916383;29;20032;-63
2021/12/13 16:09:28;;;;;;;47.35;26.42;;;;;;;;;;4927055;29;20102;-70
2021/12/13 16:11:56;;;;;;;42.45;23.45;;;;;;;;;;4920482;29;20123;-69
2021/12/13 16:14:22;;;;;;;46.33;25.52;;;;;;;;;;4925714;29;20095;-73
2021/12/13 16:16:55;;;;;;;41.30;24.30;;;;;;;;;;4925169;29;20032;-74
2021/12/13 16:19:33;;;;;;;42.53;24.75;;;;;;;;;;4921355;29;20106;-67
2021/12/13 16:22:00;;;;;;;38.50;23.17;;;;;;;;;;4930255;29;20252;-70
2021/12/13 16:24:26;;;;;;;41.83;23.55;;;;;;;;;;4934437;29;20107;-67
2021/12/13 16:26:54;;;;;;;41.75;23.40;;;;;;;;;;4934373;29;20034;-69
2021/12/13 16:29:24;;;;;;;42.88;23.52;;;;;;;;;;4922235;29;20485;-64
2021/12/13 16:31:51;;;;;;;41.92;22.98;;;;;;;;;;4915146;29;20036;-66
2021/12/13 16:34:21;;;;;;;40.38;22.50;;;;;;;;;;4915482;29;20032;-65
2021/12/13 16:36:58;;;;;;;40.78;23.73;;;;;;;;;;4915289;29;20020;-65
2021/12/13 16:39:33;;;;;;;44.17;25.05;;;;;;;;;;4915682;29;20047;-67
2021/12/13 16:42:00;;;;;;;44.70;24.17;;;;;;;;;;4922976;29;20035;-67
2021/12/13 16:44:32;;;;;;;46.25;26.02;;;;;;;;;;4924215;29;20038;-66
2021/12/13 16:47:01;;;;;;;42.10;24.45;;;;;;;;;;4924307;29;20029;-69
2021/12/13 16:49:29;;;;;;;44.35;24.25;;;;;;;;;;4923898;29;20728;-66
2021/12/13 16:51:55;;;;;;;40.83;22.98;;;;;;;;;;4920170;29;20023;-71
2021/12/13 16:54:23;;;;;;;43.65;25.08;;;;;;;;;;4915180;29;20040;-63
2021/12/13 16:56:50;;;;;;;45.40;24.30;;;;;;;;;;4917405;29;20030;-65
2021/12/13 16:59:16;;;;;;;45.65;26.08;;;;;;;;;;4921429;29;20514;-69
2021/12/13 17:02:00;;;;;;;44.50;25.90;;;;;;;;;;4914693;29;20055;-66
2021/12/13 17:04:33;;;;;;;44.40;26.08;;;;;;;;;;4915284;29;20041;-68
2021/12/13 17:07:02;;;;;;;48.42;27.40;;;;;;;;;;4920989;29;20499;-66
2021/12/13 17:09:30;;;;;;;40.97;25.02;;;;;;;;;;4927633;29;20129;-69
2021/12/13 17:12:08;;;;;;;42.63;24.67;;;;;;;;;;4923088;29;20027;-69
2021/12/13 17:14:34;;;;;;;42.85;24.02;;;;;;;;;;4922563;29;20036;-67
2021/12/13 17:17:03;;;;;;;40.60;23.45;;;;;;;;;;4921683;29;20055;-68
2021/12/13 17:19:42;;;;;;;39.42;22.13;;;;;;;;;;4920889;29;20091;-69
2021/12/13 17:22:09;;;;;;;38.70;22.30;;;;;;;;;;4917078;29;20024;-68
2021/12/13 17:24:42;;;;;;;34.28;20.35;;;;;;;;;;4914703;29;20039;-69
2021/12/13 17:27:08;;;;;;;;;;;;;;;;;;4914829;29;20036;-65
2021/12/13 17:29:40;;;;;;;35.05;20.90;;;;;;;;;;4914584;29;19923;-66
2021/12/13 17:32:09;;;;;;;36.30;21.30;;;;;;;;;;4914732;29;20035;-68
2021/12/13 17:34:43;;;;;;;39.70;21.27;;;;;;;;;;4914168;29;20173;-70
2021/12/13 17:37:15;;;;;;;35.47;20.63;;;;;;;;;;4914209;29;20036;-69
2021/12/13 17:39:43;;;;;;;38.63;21.13;;;;;;;;;;4914418;29;20055;-70
2021/12/13 17:42:11;;;;;;;40.42;22.50;;;;;;;;;;4914815;29;20124;-69
2021/12/13 17:44:37;;;;;;;42.92;24.20;;;;;;;;;;4914883;29;20043;-69
2021/12/13 17:47:04;;;;;;;40.15;22.33;;;;;;;;;;4913964;29;20103;-68
2021/12/13 17:49:45;;;;;;;39.85;22.10;;;;;;;;;;4914564;29;20048;-69
2021/12/13 17:52:11;;;;;;;38.85;21.20;;;;;;;;;;4914582;29;20024;-69
2021/12/13 17:54:48;;;;;;;39.15;20.65;;;;;;;;;;4914409;29;20032;-66
2021/12/13 17:57:14;;;;;;;36.75;19.92;;;;;;;;;;4914366;29;20481;-67
2021/12/13 17:59:42;;;;;;;37.42;20.88;;;;;;;;;;4914459;29;20447;-65
2021/12/13 18:02:13;;;;;;;37.05;20.13;;;;;;;;;;4914660;29;20043;-69
2021/12/13 18:04:55;;;;;;;39.72;21.45;;;;;;;;;;4914273;29;20404;-64
2021/12/13 18:07:29;;;;;;;33.40;19.75;;;;;;;;;;4914691;29;20024;-69
2021/12/13 18:09:55;;;;;;;35.67;20.27;;;;;;;;;;4914676;29;20036;-69
2021/12/13 18:12:27;;;;;;;38.53;21.15;;;;;;;;;;4913900;29;20035;-69
2021/12/13 18:15:04;;;;;;;36.42;21.20;;;;;;;;;;4913947;29;20126;-64
2021/12/13 18:17:45;;;;;;;42.75;25.00;;;;;;;;;;4914521;29;20067;-68
2021/12/13 18:20:26;;;;;;;53.85;31.70;;;;;;;;;;4914611;29;20490;-65
2021/12/13 18:22:52;;;;;;;42.58;25.48;;;;;;;;;;4914419;29;20373;-67
2021/12/13 18:25:19;;;;;;;44.78;24.27;;;;;;;;;;4913909;29;20043;-65
2021/12/13 18:27:46;;;;;;;40.13;24.10;;;;;;;;;;4913944;29;20024;-66
2021/12/13 18:30:16;;;;;;;40.53;24.05;;;;;;;;;;4896984;29;20047;-69
2021/12/13 18:32:43;;;;;;;40.88;23.55;;;;;;;;;;4914007;29;20477;-72
2021/12/13 18:35:44;;;;;;;42.30;24.55;;;;;;;;;;4914342;29;20428;-71
2021/12/13 18:38:31;;;;;;;42.83;24.27;;;;;;;;;;4837506;29;20120;-69
2021/12/13 18:40:59;;;;;;;41.78;25.25;;;;;;;;;;4837501;29;20073;-71
2021/12/13 18:43:34;;;;;;;44.65;26.52;;;;;;;;;;4840562;29;20075;-69
2021/12/13 18:46:01;;;;;;;58.97;33.42;;;;;;;;;;4840740;29;20356;-68
2021/12/13 18:48:29;;;;;;;47.70;29.40;;;;;;;;;;4843519;29;20482;-68
2021/12/13 18:50:58;;;;;;;47.05;28.08;;;;;;;;;;4845116;29;20383;-68
2021/12/13 18:53:26;;;;;;;48.22;28.92;;;;;;;;;;4844666;29;20042;-68
2021/12/13 18:56:01;;;;;;;48.63;28.65;;;;;;;;;;4843562;29;20086;-68
2021/12/13 18:58:33;;;;;;;47.45;27.40;;;;;;;;;;4843518;29;20426;-68
2021/12/13 19:01:19;;;;;;;47.10;27.00;;;;;;;;;;4841888;29;20090;-66
2021/12/13 19:04:08;;;;;;;50.58;29.23;;;;;;;;;;4840703;29;20042;-68
2021/12/13 19:06:37;;;;;;;54.33;29.92;;;;;;;;;;4840848;29;20638;-69
2021/12/13 19:09:17;;;;;;;55.10;31.02;;;;;;;;;;4840276;29;20615;-66
2021/12/13 19:11:45;;;;;;;61.78;35.38;;;;;;;;;;4863792;29;20032;-66
2021/12/13 19:14:14;;;;;;;61.80;35.05;;;;;;;;;;4917242;29;20040;-64
2021/12/13 19:16:40;;;;;;;59.03;34.13;;;;;;;;;;4917125;29;20086;-65
2021/12/13 19:19:25;;;;;;;56.35;31.65;;;;;;;;;;4916941;29;20056;-65
2021/12/13 19:21:54;;;;;;;51.47;31.52;;;;;;;;;;4917210;29;20115;-65
2021/12/13 19:24:29;;;;;;;54.80;31.98;;;;;;;;;;4917031;29;20055;-66
2021/12/13 19:27:00;;;;;;;55.00;32.90;;;;;;;;;;4917015;29;20059;-66
2021/12/13 19:29:35;;;;;;;56.78;33.15;;;;;;;;;;4917353;29;20455;-65
2021/12/13 19:32:10;;;;;;;53.03;32.50;;;;;;;;;;4916889;29;20032;-65
2021/12/13 19:34:41;;;;;;;63.63;36.25;;;;;;;;;;4916698;29;21924;-66
2021/12/13 19:37:11;;;;;;;60.20;33.97;;;;;;;;;;4916899;29;20039;-65
2021/12/13 19:39:45;;;;;;;58.15;34.53;;;;;;;;;;4916867;29;20078;-65
2021/12/13 19:42:18;;;;;;;57.47;34.63;;;;;;;;;;4932990;29;20044;-65
2021/12/13 19:44:54;;;;;;;59.45;33.72;;;;;;;;;;4935623;29;20106;-65
2021/12/13 19:47:28;;;;;;;60.60;33.58;;;;;;;;;;4935458;29;20098;-65
2021/12/13 19:50:00;;;;;;;53.03;33.13;;;;;;;;;;4935541;29;20110;-66
2021/12/13 19:52:27;;;;;;;;;;;;;;;;;;4936168;29;20032;-65
2021/12/13 19:54:56;;;;;;;57.00;33.65;;;;;;;;;;4935336;29;19985;-65
2021/12/13 19:57:24;;;;;;;54.63;32.60;;;;;;;;;;4935434;29;20495;-68
2021/12/13 19:59:52;;;;;;;59.50;33.80;;;;;;;;;;4935550;29;20031;-69
2021/12/13 20:02:32;;;;;;;55.00;33.22;;;;;;;;;;4935505;29;20484;-69
2021/12/13 20:05:00;;;;;;;59.47;34.83;;;;;;;;;;4935400;29;20028;-67
2021/12/13 20:07:35;;;;;;;66.65;39.40;;;;;;;;;;4935108;29;20043;-67
2021/12/13 20:10:14;;;;;;;95.25;52.03;;;;;;;;;;4917801;29;20055;-67
2021/12/13 20:12:55;;;;;;;93.88;49.30;;;;;;;;;;4935104;29;20453;-70
2021/12/13 20:15:28;;;;;;;84.63;45.08;;;;;;;;;;4935168;29;20038;-67
2021/12/13 20:18:02;;;;;;;96.18;53.67;;;;;;;;;;4935134;29;20039;-67
2021/12/13 20:20:37;;;;;;;85.60;48.85;;;;;;;;;;4917453;29;20067;-70
2021/12/13 20:23:09;;;;;;;76.93;45.30;;;;;;;;;;4934591;29;20020;-67
2021/12/13 20:25:40;;;;;;;78.68;43.90;;;;;;;;;;4923456;29;20035;-72
2021/12/13 20:28:09;;;;;;;76.45;44.10;;;;;;;;;;4914647;29;20028;-68
2021/12/13 20:30:44;;;;;;;75.00;42.83;;;;;;;;;;4915948;29;20043;-71
2021/12/13 20:33:16;;;;;;;66.25;37.92;;;;;;;;;;4915277;29;20043;-66
2021/12/13 20:35:42;;;;;;;58.22;34.88;;;;;;;;;;4915098;29;20052;-68
2021/12/13 20:38:13;;;;;;;56.92;34.90;;;;;;;;;;4915362;29;20092;-70
2021/12/13 20:40:39;;;;;;;62.00;35.90;;;;;;;;;;4915634;29;20028;-70
2021/12/13 20:43:08;;;;;;;70.10;39.95;;;;;;;;;;4915315;29;20028;-70
2021/12/13 20:45:55;;;;;;;67.40;37.95;;;;;;;;;;4915410;29;20028;-69
2021/12/13 20:48:23;;;;;;;69.78;38.85;;;;;;;;;;4915281;29;20043;-67
2021/12/13 20:50:58;;;;;;;72.82;40.35;;;;;;;;;;4915772;29;20439;-69
2021/12/13 20:53:26;;;;;;;74.53;42.90;;;;;;;;;;4915730;29;20472;-66
2021/12/13 20:55:57;;;;;;;75.22;44.45;;;;;;;;;;4914587;29;20052;-64
2021/12/13 20:58:33;;;;;;;93.00;49.60;;;;;;;;;;4915848;29;20039;-63
2021/12/13 21:01:07;;;;;;;86.57;48.10;;;;;;;;;;4914938;29;20028;-63
2021/12/13 21:03:53;;;;;;;78.43;43.35;;;;;;;;;;4915544;29;20032;-66
2021/12/13 21:06:31;;;;;;;69.47;41.60;;;;;;;;;;4914712;29;20055;-70
2021/12/13 21:09:00;;;;;;;73.47;41.72;;;;;;;;;;4915165;29;20140;-65
2021/12/13 21:11:40;;;;;;;70.60;40.90;;;;;;;;;;4915021;29;20051;-66
2021/12/13 21:14:08;;;;;;;75.75;44.05;;;;;;;;;;4915079;29;20524;-65
2021/12/13 21:16:45;;;;;;;76.43;43.85;;;;;;;;;;4915226;29;20028;-63
2021/12/13 21:19:16;;;;;;;74.40;40.95;;;;;;;;;;4915514;29;20032;-66
2021/12/13 21:21:46;;;;;;;73.93;42.67;;;;;;;;;;4898101;29;20039;-66